Time;durP1;ratioP1;P1;durP2;ratioP2;P2;SDS_P1;SDS_P2;PMS_P1;PMS_P2;Temp;Humidity;BMP_temperature;BMP_pressure;BME280_temperature;BME280_humidity;BME280_pressure;Samples;Min_cycle;Max_cycle;Signal;HPM_P1;HPM_P2
2023/04/29 00:01:58;;;;;;;;;;;11.50;86.20;;;;;;5074181;28;19909;-28
2023/04/29 00:04:26;;;;;;;;;;;11.50;86.30;;;;;;5074102;28;19914;-29
2023/04/29 00:06:52;;;;;;;;;;;11.50;86.20;;;;;;5074063;28;19970;-39
2023/04/29 00:09:17;;;;;;;;;;;11.50;86.20;;;;;;5074277;28;19908;-29
2023/04/29 00:11:42;;;;;;;;;;;11.50;86.10;;;;;;5073970;28;19916;-29
2023/04/29 00:14:08;;;;;;;;;;;11.50;86.20;;;;;;5073988;28;19957;-29
2023/04/29 00:16:33;;;;;;;;;;;11.40;86.10;;;;;;5073313;28;19908;-29
2023/04/29 00:18:59;;;;;;;;;;;11.40;86.20;;;;;;5073899;28;19909;-29
2023/04/29 00:21:26;;;;;;;;;;;11.40;86.30;;;;;;5073722;28;19908;-34
2023/04/29 00:23:52;;;;;;;;;;;11.40;86.30;;;;;;5073458;28;20398;-29
2023/04/29 00:26:17;;;;;;;;;;;11.40;86.30;;;;;;5073523;28;20344;-31
2023/04/29 00:28:43;;;;;;;;;;;11.40;86.30;;;;;;5072111;28;19912;-31
2023/04/29 00:31:09;;;;;;;;;;;11.30;86.40;;;;;;5073397;28;20448;-29
2023/04/29 00:33:34;;;;;;;;;;;11.30;86.50;;;;;;5073725;28;19916;-30
2023/04/29 00:36:00;;;;;;;;;;;11.30;86.60;;;;;;5073511;28;20396;-29
2023/04/29 00:38:26;;;;;;;;;;;11.30;86.60;;;;;;5073845;28;19908;-34
2023/04/29 00:40:52;;;;;;;;;;;11.30;86.60;;;;;;5071985;28;20368;-29
2023/04/29 00:43:17;;;;;;;;;;;11.30;86.60;;;;;;5073253;28;19958;-29
2023/04/29 00:45:44;;;;;;;;;;;11.30;86.60;;;;;;5073106;28;20473;-29
2023/04/29 00:48:10;;;;;;;;;;;11.30;86.60;;;;;;5073318;28;19989;-30
2023/04/29 00:50:35;;;;;;;;;;;11.30;86.70;;;;;;5073010;28;20360;-32
2023/04/29 00:53:01;;;;;;;;;;;11.30;86.60;;;;;;5073253;28;19915;-35
2023/04/29 00:55:27;;;;;;;;;;;11.30;86.70;;;;;;5073474;28;19966;-30
2023/04/29 00:57:52;;;;;;;;;;;11.30;86.70;;;;;;5073050;28;19981;-29
2023/04/29 01:00:18;;;;;;;;;;;11.30;86.70;;;;;;5073072;28;19954;-29
2023/04/29 01:02:44;;;;;;;;;;;11.30;86.80;;;;;;5072839;28;19915;-32
2023/04/29 01:05:10;;;;;;;;;;;11.30;86.70;;;;;;5073008;28;19908;-35
2023/04/29 01:07:38;;;;;;;;;;;11.30;86.70;;;;;;5073116;28;19920;-29
2023/04/29 01:10:22;;;;;;;;;;;11.30;86.70;;;;;;5072927;28;20356;-29
2023/04/29 01:13:08;;;;;;;;;;;11.30;86.60;;;;;;5072941;28;19916;-30
2023/04/29 01:15:38;;;;;;;;;;;11.40;86.70;;;;;;5072756;28;20003;-33
2023/04/29 01:18:05;;;;;;;;;;;11.40;86.60;;;;;;5072834;28;20197;-35
2023/04/29 01:20:32;;;;;;;;;;;11.40;86.50;;;;;;5073066;28;19917;-29
2023/04/29 01:22:57;;;;;;;;;;;11.40;86.50;;;;;;5072565;28;19924;-32
2023/04/29 01:25:23;;;;;;;;;;;11.40;86.50;;;;;;5072438;28;20284;-29
2023/04/29 01:27:54;;;;;;;;;;;11.30;86.50;;;;;;5071972;28;20017;-38
2023/04/29 01:30:27;;;;;;;;;;;11.30;86.50;;;;;;5071904;28;19908;-31
2023/04/29 01:32:57;;;;;;;;;;;11.30;86.60;;;;;;5072482;28;19999;-32
2023/04/29 01:35:32;;;;;;;;;;;11.20;86.60;;;;;;5072527;28;20435;-30
2023/04/29 01:38:09;;;;;;;;;;;11.20;86.70;;;;;;5072386;28;20272;-29
2023/04/29 01:40:42;;;;;;;;;;;11.30;86.80;;;;;;5070769;28;19915;-31
2023/04/29 01:43:10;;;;;;;;;;;11.20;86.60;;;;;;5072254;28;20056;-35
2023/04/29 01:45:40;;;;;;;;;;;11.20;86.60;;;;;;5071845;28;19945;-29
2023/04/29 01:48:06;;;;;;;;;;;11.20;86.80;;;;;;5072062;28;19912;-29
2023/04/29 01:50:31;;;;;;;;;;;11.20;86.70;;;;;;5072012;28;19989;-29
2023/04/29 01:52:57;;;;;;;;;;;11.20;86.70;;;;;;5072178;28;19948;-30
2023/04/29 01:55:22;;;;;;;;;;;11.20;86.80;;;;;;5071984;28;19912;-28
2023/04/29 01:57:48;;;;;;;;;;;11.10;86.60;;;;;;5072012;28;19948;-32
2023/04/29 02:00:14;;;;;;;;;;;11.10;86.70;;;;;;5071862;28;20284;-29
2023/04/29 02:02:39;;;;;;;;;;;11.10;86.80;;;;;;5071943;28;19908;-32
2023/04/29 02:05:05;;;;;;;;;;;11.10;86.80;;;;;;5071935;28;20291;-29
2023/04/29 02:07:30;;;;;;;;;;;11.10;86.80;;;;;;5071861;28;19925;-28
2023/04/29 02:09:56;;;;;;;;;;;11.10;86.80;;;;;;5071750;28;20325;-34
2023/04/29 02:12:22;;;;;;;;;;;11.10;86.80;;;;;;5071750;28;19915;-30
2023/04/29 02:14:51;;;;;;;;;;;11.10;86.80;;;;;;5071833;28;19908;-29
2023/04/29 02:17:16;;;;;;;;;;;11.10;86.80;;;;;;5071674;28;20387;-32
2023/04/29 02:19:42;;;;;;;;;;;11.00;86.70;;;;;;5071664;28;19953;-29
2023/04/29 02:22:08;;;;;;;;;;;11.10;86.80;;;;;;5071546;28;19920;-45
2023/04/29 02:24:34;;;;;;;;;;;11.10;86.80;;;;;;5071613;28;19945;-42
2023/04/29 02:26:59;;;;;;;;;;;11.10;86.80;;;;;;5071665;28;20288;-42
2023/04/29 02:29:26;;;;;;;;;;;11.00;86.70;;;;;;5071639;28;19955;-43
2023/04/29 02:31:51;;;;;;;;;;;11.00;86.70;;;;;;5071574;28;19909;-38
2023/04/29 02:34:16;;;;;;;;;;;11.00;86.80;;;;;;5071719;28;19909;-43
2023/04/29 02:36:42;;;;;;;;;;;11.00;86.70;;;;;;5071728;28;19954;-42
2023/04/29 02:39:08;;;;;;;;;;;11.00;86.90;;;;;;5071357;28;19908;-43
2023/04/29 02:41:33;;;;;;;;;;;11.00;86.80;;;;;;5071294;28;19912;-40
2023/04/29 02:43:59;;;;;;;;;;;10.90;86.80;;;;;;5071472;28;19916;-45
2023/04/29 02:46:24;;;;;;;;;;;11.00;86.90;;;;;;5069845;28;19977;-42
2023/04/29 02:48:50;;;;;;;;;;;11.00;86.80;;;;;;5071867;28;19912;-42
2023/04/29 02:51:15;;;;;;;;;;;11.00;86.90;;;;;;5071323;28;20004;-45
2023/04/29 02:53:41;;;;;;;;;;;10.90;86.90;;;;;;5071346;28;19908;-43
2023/04/29 02:56:06;;;;;;;;;;;10.90;86.90;;;;;;5071258;28;20069;-44
2023/04/29 02:58:32;;;;;;;;;;;10.90;87.00;;;;;;5071173;28;19909;-44
2023/04/29 03:00:57;;;;;;;;;;;10.80;87.00;;;;;;5071527;28;20286;-43
2023/04/29 03:03:23;;;;;;;;;;;10.90;87.10;;;;;;5071330;28;19912;-43
2023/04/29 03:05:49;;;;;;;;;;;10.90;87.10;;;;;;5071488;28;19913;-43
2023/04/29 03:08:14;;;;;;;;;;;10.90;87.00;;;;;;5071195;28;20396;-45
2023/04/29 03:10:40;;;;;;;;;;;10.90;87.00;;;;;;5069680;28;19909;-44
2023/04/29 03:13:05;;;;;;;;;;;10.90;87.00;;;;;;5071413;28;20267;-44
2023/04/29 03:15:31;;;;;;;;;;;10.90;87.10;;;;;;5071079;28;19915;-43
2023/04/29 03:18:00;;;;;;;;;;;10.90;87.10;;;;;;5069715;28;19915;-44
2023/04/29 03:20:26;;;;;;;;;;;10.80;87.00;;;;;;5070939;28;19985;-44
2023/04/29 03:22:51;;;;;;;;;;;10.90;87.10;;;;;;5070860;28;20356;-43
2023/04/29 03:25:17;;;;;;;;;;;10.80;87.10;;;;;;5071417;28;20003;-44
2023/04/29 03:27:43;;;;;;;;;;;10.80;87.10;;;;;;5071368;28;19944;-41
2023/04/29 03:30:08;;;;;;;;;;;10.90;87.00;;;;;;5071085;28;19909;-47
2023/04/29 03:32:34;;;;;;;;;;;10.80;87.00;;;;;;5071105;28;19935;-41
2023/04/29 03:34:59;;;;;;;;;;;10.90;87.00;;;;;;5071379;28;20461;-44
2023/04/29 03:37:25;;;;;;;;;;;10.90;87.00;;;;;;5070981;28;19908;-44
2023/04/29 03:39:50;;;;;;;;;;;10.80;86.90;;;;;;5071145;28;20070;-43
2023/04/29 03:42:16;;;;;;;;;;;10.80;86.90;;;;;;5070809;28;20344;-43
2023/04/29 03:44:41;;;;;;;;;;;10.80;87.00;;;;;;5070811;28;19912;-44
2023/04/29 03:47:07;;;;;;;;;;;10.80;87.00;;;;;;5070984;28;19913;-43
2023/04/29 03:49:32;;;;;;;;;;;10.80;87.00;;;;;;5070747;28;20235;-42
2023/04/29 03:51:58;;;;;;;;;;;10.80;86.90;;;;;;5071952;28;19908;-34
2023/04/29 03:54:23;;;;;;;;;;;10.90;87.10;;;;;;5074489;28;19998;-34
2023/04/29 03:56:49;;;;;;;;;;;10.90;86.90;;;;;;5074258;28;19951;-34
2023/04/29 03:59:14;;;;;;;;;;;10.90;86.80;;;;;;5074223;28;19913;-34
2023/04/29 04:01:40;;;;;;;;;;;10.80;86.80;;;;;;5074524;28;19908;-34
2023/04/29 04:04:05;;;;;;;;;;;10.80;86.80;;;;;;5074348;28;19912;-34
2023/04/29 04:06:31;;;;;;;;;;;10.80;86.90;;;;;;5074237;28;19959;-34
2023/04/29 04:08:56;;;;;;;;;;;10.80;86.90;;;;;;5073749;28;19908;-36
2023/04/29 04:11:22;;;;;;;;;;;10.80;86.90;;;;;;5074032;28;19908;-34
2023/04/29 04:13:48;;;;;;;;;;;10.80;86.90;;;;;;5073915;28;19909;-34
2023/04/29 04:16:14;;;;;;;;;;;10.70;86.90;;;;;;5074208;28;19909;-34
2023/04/29 04:18:39;;;;;;;;;;;10.70;87.00;;;;;;5073856;28;19909;-35
2023/04/29 04:21:06;;;;;;;;;;;10.70;87.00;;;;;;5073701;28;19915;-34
2023/04/29 04:23:31;;;;;;;;;;;10.70;87.10;;;;;;5073484;28;19920;-32
2023/04/29 04:25:57;;;;;;;;;;;10.60;86.90;;;;;;5073672;28;19962;-34
2023/04/29 04:28:22;;;;;;;;;;;10.60;87.10;;;;;;5073804;28;20018;-32
2023/04/29 04:30:48;;;;;;;;;;;10.70;87.10;;;;;;5073718;28;19912;-34
2023/04/29 04:33:14;;;;;;;;;;;10.70;87.10;;;;;;5073819;28;19909;-34
2023/04/29 04:35:40;;;;;;;;;;;10.70;87.00;;;;;;5073786;28;19916;-35
2023/04/29 04:38:06;;;;;;;;;;;10.70;87.00;;;;;;5073528;28;20356;-34
2023/04/29 04:40:31;;;;;;;;;;;10.70;87.00;;;;;;5073781;28;19915;-34
2023/04/29 04:42:57;;;;;;;;;;;10.70;86.90;;;;;;5073473;28;19908;-35
2023/04/29 04:45:22;;;;;;;;;;;10.70;87.10;;;;;;5073536;28;20003;-33
2023/04/29 04:47:48;;;;;;;;;;;10.80;86.90;;;;;;5073331;28;19920;-36
2023/04/29 04:50:13;;;;;;;;;;;10.80;86.80;;;;;;5073355;28;19912;-36
2023/04/29 04:52:39;;;;;;;;;;;10.70;86.70;;;;;;5073629;28;19909;-35
2023/04/29 04:55:04;;;;;;;;;;;10.70;86.70;;;;;;5073540;28;20363;-35
2023/04/29 04:57:30;;;;;;;;;;;10.70;86.60;;;;;;5073240;28;19967;-35
2023/04/29 04:59:56;;;;;;;;;;;10.70;86.60;;;;;;5073398;28;19983;-33
2023/04/29 05:02:21;;;;;;;;;;;10.70;86.60;;;;;;5073069;28;19913;-34
2023/04/29 05:04:47;;;;;;;;;;;10.70;86.50;;;;;;5073395;28;19936;-35
2023/04/29 05:07:12;;;;;;;;;;;10.70;86.50;;;;;;5073075;28;20260;-35
2023/04/29 05:09:37;;;;;;;;;;;10.70;86.50;;;;;;5073204;28;19920;-35
2023/04/29 05:12:03;;;;;;;;;;;10.70;86.50;;;;;;5073392;28;20009;-34
2023/04/29 05:14:28;;;;;;;;;;;10.80;86.50;;;;;;5073615;28;19912;-35
2023/04/29 05:16:57;;;;;;;;;;;10.80;86.40;;;;;;5072944;28;20059;-34
2023/04/29 05:19:23;;;;;;;;;;;10.80;86.30;;;;;;5073063;28;19912;-33
2023/04/29 05:21:48;;;;;;;;;;;10.90;86.20;;;;;;5073144;28;19931;-35
2023/04/29 05:24:14;;;;;;;;;;;10.80;86.00;;;;;;5073065;28;19919;-35
2023/04/29 05:26:42;;;;;;;;;;;10.80;86.00;;;;;;5073197;28;20007;-35
2023/04/29 05:29:07;;;;;;;;;;;10.90;86.10;;;;;;5073199;28;19943;-35
2023/04/29 05:31:33;;;;;;;;;;;10.90;86.00;;;;;;5072628;28;20398;-35
2023/04/29 05:33:58;;;;;;;;;;;11.00;86.00;;;;;;5072713;28;19916;-35
2023/04/29 05:36:24;;;;;;;;;;;11.00;85.80;;;;;;5072504;28;19909;-35
2023/04/29 05:38:50;;;;;;;;;;;11.10;85.70;;;;;;5072400;28;19909;-35
2023/04/29 05:41:15;;;;;;;;;;;11.10;85.70;;;;;;5072745;28;20050;-35
2023/04/29 05:43:40;;;;;;;;;;;11.10;85.60;;;;;;5072407;28;19954;-35
2023/04/29 05:46:06;;;;;;;;;;;11.10;85.50;;;;;;5072758;28;19912;-33
2023/04/29 05:48:31;;;;;;;;;;;11.20;85.50;;;;;;5072262;28;20372;-35
2023/04/29 05:50:57;;;;;;;;;;;11.20;85.40;;;;;;5072379;28;19959;-34
2023/04/29 05:53:22;;;;;;;;;;;11.30;85.40;;;;;;5070918;28;20387;-35
2023/04/29 05:55:49;;;;;;;;;;;11.20;85.20;;;;;;5072506;28;20360;-35
2023/04/29 05:58:15;;;;;;;;;;;11.20;85.20;;;;;;5072073;28;19909;-35
2023/04/29 06:00:42;;;;;;;;;;;11.20;84.90;;;;;;5072151;28;19995;-35
2023/04/29 06:03:09;;;;;;;;;;;11.20;85.00;;;;;;5072070;28;19908;-35
2023/04/29 06:05:35;;;;;;;;;;;11.20;84.90;;;;;;5071806;28;19916;-34
2023/04/29 06:08:01;;;;;;;;;;;11.20;84.90;;;;;;5072269;28;19913;-36
2023/04/29 06:10:26;;;;;;;;;;;11.30;85.00;;;;;;5071782;28;19943;-34
2023/04/29 06:12:52;;;;;;;;;;;11.30;84.90;;;;;;5072008;28;19931;-34
2023/04/29 06:15:17;;;;;;;;;;;11.40;84.90;;;;;;5071500;28;19916;-35
2023/04/29 06:17:43;;;;;;;;;;;11.40;84.70;;;;;;5071751;28;20443;-35
2023/04/29 06:20:09;;;;;;;;;;;11.40;84.50;;;;;;5072115;28;19909;-35
2023/04/29 06:22:34;;;;;;;;;;;11.40;84.30;;;;;;5071673;28;20003;-35
2023/04/29 06:25:00;;;;;;;;;;;11.40;84.20;;;;;;5071997;28;20363;-35
2023/04/29 06:27:25;;;;;;;;;;;11.30;84.20;;;;;;5071643;28;19912;-35
2023/04/29 06:29:50;;;;;;;;;;;11.30;84.40;;;;;;5071846;28;19909;-35
2023/04/29 06:32:16;;;;;;;;;;;11.30;84.40;;;;;;5071923;28;19915;-34
2023/04/29 06:34:41;;;;;;;;;;;11.40;84.40;;;;;;5070438;28;19999;-34
2023/04/29 06:37:07;;;;;;;;;;;11.40;84.30;;;;;;5071769;28;20007;-35
2023/04/29 06:39:32;;;;;;;;;;;11.40;84.00;;;;;;5071638;28;20420;-35
2023/04/29 06:41:58;;;;;;;;;;;11.40;84.10;;;;;;5071693;28;19908;-35
2023/04/29 06:44:24;;;;;;;;;;;11.40;84.00;;;;;;5071789;28;19912;-34
2023/04/29 06:46:49;;;;;;;;;;;11.50;84.00;;;;;;5071762;28;19912;-37
2023/04/29 06:49:15;;;;;;;;;;;11.50;84.00;;;;;;5071877;28;19909;-33
2023/04/29 06:51:41;;;;;;;;;;;11.60;83.70;;;;;;5071854;28;19909;-35
2023/04/29 06:54:07;;;;;;;;;;;11.60;83.50;;;;;;5071478;28;19912;-33
2023/04/29 06:56:32;;;;;;;;;;;11.60;83.40;;;;;;5071901;28;20053;-35
2023/04/29 06:58:58;;;;;;;;;;;11.60;83.50;;;;;;5070086;28;19908;-35
2023/04/29 07:01:23;;;;;;;;;;;11.70;83.50;;;;;;5071428;28;20409;-34
2023/04/29 07:03:49;;;;;;;;;;;11.70;83.10;;;;;;5071543;28;20280;-35
2023/04/29 07:06:14;;;;;;;;;;;11.80;83.10;;;;;;5071391;28;19917;-34
2023/04/29 07:08:40;;;;;;;;;;;11.80;83.10;;;;;;5071269;28;20255;-35
2023/04/29 07:11:05;;;;;;;;;;;11.90;83.10;;;;;;5071435;28;19909;-35
2023/04/29 07:13:31;;;;;;;;;;;11.90;82.70;;;;;;5071403;28;20007;-35
2023/04/29 07:15:56;;;;;;;;;;;12.00;82.70;;;;;;5071456;28;19908;-34
2023/04/29 07:18:22;;;;;;;;;;;12.00;82.40;;;;;;5071570;28;19908;-34
2023/04/29 07:20:48;;;;;;;;;;;12.10;82.10;;;;;;5071425;28;20347;-36
2023/04/29 07:23:14;;;;;;;;;;;12.10;81.90;;;;;;5071574;28;20384;-36
2023/04/29 07:25:40;;;;;;;;;;;12.20;82.00;;;;;;5071328;28;19916;-35
2023/04/29 07:28:07;;;;;;;;;;;12.20;81.00;;;;;;5074910;28;20428;-27
2023/04/29 07:30:32;;;;;;;;;;;12.20;81.40;;;;;;5075000;28;20387;-26
2023/04/29 07:32:58;;;;;;;;;;;12.20;81.20;;;;;;5074820;28;19909;-27
2023/04/29 07:35:23;;;;;;;;;;;12.30;80.90;;;;;;5074874;28;20376;-27
2023/04/29 07:37:49;;;;;;;;;;;12.30;80.60;;;;;;5074671;28;19908;-26
2023/04/29 07:40:14;;;;;;;;;;;12.30;80.90;;;;;;5073425;28;19909;-30
2023/04/29 07:42:40;;;;;;;;;;;12.40;80.80;;;;;;5074553;28;19916;-28
2023/04/29 07:45:05;;;;;;;;;;;12.40;80.70;;;;;;5074670;28;19916;-32
2023/04/29 07:47:31;;;;;;;;;;;12.50;80.70;;;;;;5074367;28;19999;-26
2023/04/29 07:49:57;;;;;;;;;;;12.60;80.20;;;;;;5074511;28;20000;-29
2023/04/29 07:52:22;;;;;;;;;;;12.70;79.70;;;;;;5074774;28;19909;-26
2023/04/29 07:54:48;;;;;;;;;;;12.70;79.10;;;;;;5074533;28;20437;-28
2023/04/29 07:57:13;;;;;;;;;;;12.80;78.80;;;;;;5074504;28;19996;-29
2023/04/29 07:59:39;;;;;;;;;;;12.80;79.30;;;;;;5074504;28;19954;-26
2023/04/29 08:02:05;;;;;;;;;;;12.90;78.20;;;;;;5072929;28;19914;-29
2023/04/29 08:04:30;;;;;;;;;;;12.90;78.20;;;;;;5074276;28;19918;-29
2023/04/29 08:06:56;;;;;;;;;;;12.90;77.50;;;;;;5074209;28;19917;-29
2023/04/29 08:09:21;;;;;;;;;;;13.00;77.40;;;;;;5074158;28;19909;-25
2023/04/29 08:11:46;;;;;;;;;;;13.00;78.10;;;;;;5074146;28;19909;-28
2023/04/29 08:14:12;;;;;;;;;;;13.10;77.80;;;;;;5074185;28;20379;-25
2023/04/29 08:16:37;;;;;;;;;;;13.30;78.00;;;;;;5074251;28;19912;-28
2023/04/29 08:19:03;;;;;;;;;;;13.40;77.30;;;;;;5073841;28;19909;-28
2023/04/29 08:21:30;;;;;;;;;;;13.40;76.00;;;;;;5074222;28;19926;-27
2023/04/29 08:23:56;;;;;;;;;;;13.40;77.10;;;;;;5073808;28;19920;-28
2023/04/29 08:26:21;;;;;;;;;;;13.50;76.90;;;;;;5073893;28;19981;-27
2023/04/29 08:28:47;;;;;;;;;;;13.50;76.10;;;;;;5073903;28;19909;-28
2023/04/29 08:31:16;;;;;;;;;;;13.60;76.00;;;;;;5072592;28;20348;-27
2023/04/29 08:33:42;;;;;;;;;;;13.60;76.00;;;;;;5072492;28;20260;-27
2023/04/29 08:36:07;;;;;;;;;;;13.70;74.70;;;;;;5073802;28;19909;-27
2023/04/29 08:38:33;;;;;;;;;;;13.70;73.30;;;;;;5072853;28;20313;-28
2023/04/29 08:40:59;;;;;;;;;;;13.70;74.30;;;;;;5073656;28;20360;-27
2023/04/29 08:43:25;;;;;;;;;;;13.70;74.40;;;;;;5073688;28;19908;-30
2023/04/29 08:45:51;;;;;;;;;;;13.80;74.20;;;;;;5073490;28;20363;-27
2023/04/29 08:48:17;;;;;;;;;;;13.80;74.70;;;;;;5073698;28;20006;-28
2023/04/29 08:50:43;;;;;;;;;;;13.90;74.70;;;;;;5073492;28;19916;-28
2023/04/29 08:53:09;;;;;;;;;;;14.00;74.20;;;;;;5073407;28;19941;-29
2023/04/29 08:55:35;;;;;;;;;;;14.10;73.10;;;;;;5073432;28;19915;-29
2023/04/29 08:58:01;;;;;;;;;;;14.10;73.70;;;;;;5074023;28;19912;-27
2023/04/29 09:00:27;;;;;;;;;;;14.20;72.80;;;;;;5073277;28;20419;-26
2023/04/29 09:02:54;;;;;;;;;;;14.20;73.10;;;;;;5073346;28;19912;-31
2023/04/29 09:05:20;;;;;;;;;;;14.20;73.40;;;;;;5073279;28;19915;-27
2023/04/29 09:07:46;;;;;;;;;;;14.30;72.00;;;;;;5073052;28;19948;-27
2023/04/29 09:10:12;;;;;;;;;;;14.30;71.70;;;;;;5073122;28;20387;-27
2023/04/29 09:12:37;;;;;;;;;;;14.40;72.90;;;;;;5073047;28;19909;-29
2023/04/29 09:15:03;;;;;;;;;;;14.50;71.50;;;;;;5073054;28;19995;-26
2023/04/29 09:17:37;;;;;;;;;;;14.50;70.90;;;;;;5072926;28;19908;-27
2023/04/29 09:20:23;;;;;;;;;;;14.50;69.80;;;;;;5073209;28;20392;-28
2023/04/29 09:22:48;;;;;;;;;;;14.60;70.30;;;;;;5072566;28;19920;-27
2023/04/29 09:25:14;;;;;;;;;;;14.50;68.90;;;;;;5072910;28;19912;-27
2023/04/29 09:27:40;;;;;;;;;;;14.60;69.70;;;;;;5072719;28;19919;-26
2023/04/29 09:30:06;;;;;;;;;;;14.60;68.40;;;;;;5072688;28;19962;-26
2023/04/29 09:32:31;;;;;;;;;;;14.70;69.00;;;;;;5072872;28;19919;-27
2023/04/29 09:34:56;;;;;;;;;;;14.70;69.00;;;;;;5072753;28;20368;-31
2023/04/29 09:37:24;;;;;;;;;;;14.70;68.80;;;;;;5072899;28;19966;-27
2023/04/29 09:39:49;;;;;;;;;;;14.80;69.20;;;;;;5072736;28;19909;-35
2023/04/29 09:42:15;;;;;;;;;;;14.80;67.40;;;;;;5072955;28;20292;-27
2023/04/29 09:44:41;;;;;;;;;;;14.80;67.00;;;;;;5072595;28;19979;-26
2023/04/29 09:47:07;;;;;;;;;;;14.80;68.20;;;;;;5072597;28;20398;-28
2023/04/29 09:49:37;;;;;;;;;;;14.90;67.70;;;;;;5071737;28;19908;-27
2023/04/29 09:52:03;;;;;;;;;;;14.90;67.20;;;;;;5072537;28;19915;-27
2023/04/29 09:54:31;;;;;;;;;;;15.00;67.60;;;;;;5071194;28;19912;-29
2023/04/29 09:56:57;;;;;;;;;;;15.10;68.10;;;;;;5072611;28;19958;-29
2023/04/29 09:59:23;;;;;;;;;;;15.20;67.00;;;;;;5071116;28;19914;-27
2023/04/29 10:01:50;;;;;;;;;;;15.10;67.30;;;;;;5072290;28;19908;-33
2023/04/29 10:04:16;;;;;;;;;;;15.10;67.20;;;;;;5072475;28;20291;-27
2023/04/29 10:06:43;;;;;;;;;;;15.10;67.60;;;;;;5072165;28;19913;-26
2023/04/29 10:09:11;;;;;;;;;;;15.00;67.10;;;;;;5072150;28;19909;-30
2023/04/29 10:11:38;;;;;;;;;;;15.00;67.60;;;;;;5072322;28;20007;-30
2023/04/29 10:14:05;;;;;;;;;;;15.00;67.20;;;;;;5072643;28;19912;-32
2023/04/29 10:16:33;;;;;;;;;;;15.00;66.40;;;;;;5072098;28;19961;-27
2023/04/29 10:18:59;;;;;;;;;;;15.00;67.50;;;;;;5072074;28;19915;-28
2023/04/29 10:21:30;;;;;;;;;;;15.00;68.10;;;;;;5072167;28;19915;-28
2023/04/29 10:24:00;;;;;;;;;;;15.10;68.00;;;;;;5072159;28;20277;-29
2023/04/29 10:26:27;;;;;;;;;;;15.20;68.10;;;;;;5072087;28;19912;-32
2023/04/29 10:28:58;;;;;;;;;;;15.30;66.60;;;;;;5070601;28;19908;-28
2023/04/29 10:31:26;;;;;;;;;;;15.20;66.20;;;;;;5072112;28;19913;-28
2023/04/29 10:33:54;;;;;;;;;;;15.20;66.80;;;;;;5071854;28;20004;-30
2023/04/29 10:36:20;;;;;;;;;;;15.10;67.20;;;;;;5071946;28;19908;-27
2023/04/29 10:38:49;;;;;;;;;;;15.20;66.00;;;;;;5071879;28;20384;-29
2023/04/29 10:41:23;;;;;;;;;;;15.10;65.80;;;;;;5071915;28;20434;-26
2023/04/29 10:43:49;;;;;;;;;;;15.10;66.40;;;;;;5071660;28;19995;-28
2023/04/29 10:46:15;;;;;;;;;;;15.20;66.60;;;;;;5071903;28;19960;-27
2023/04/29 10:48:42;;;;;;;;;;;15.20;65.10;;;;;;5071693;28;20380;-28
2023/04/29 10:51:07;;;;;;;;;;;15.20;66.30;;;;;;5071899;28;20282;-26
2023/04/29 10:53:33;;;;;;;;;;;15.30;66.90;;;;;;5071750;28;19948;-27
2023/04/29 10:56:02;;;;;;;;;;;15.40;66.30;;;;;;5071700;28;19908;-30
2023/04/29 10:58:34;;;;;;;;;;;15.40;65.90;;;;;;5071581;28;19909;-29
2023/04/29 11:00:59;;;;;;;;;;;15.50;65.80;;;;;;5072750;28;19909;-34
2023/04/29 11:03:44;;;;;;;;;;;15.50;65.60;;;;;;5075951;28;20191;-36
2023/04/29 11:06:10;;;;;;;;;;;15.60;65.20;;;;;;5075623;28;19919;-27
2023/04/29 11:08:38;;;;;;;;;;;15.60;65.70;;;;;;5075819;28;19915;-31
2023/04/29 11:11:05;;;;;;;;;;;15.70;66.10;;;;;;5075517;28;19908;-27
2023/04/29 11:13:33;;;;;;;;;;;15.90;66.30;;;;;;5075578;28;20273;-27
2023/04/29 11:16:05;;;;;;;;;;;16.00;65.80;;;;;;5075667;28;19961;-40
2023/04/29 11:18:31;;;;;;;;;;;16.10;63.90;;;;;;5073986;28;19932;-30
2023/04/29 11:21:05;;;;;;;;;;;16.10;64.80;;;;;;5075284;28;19909;-33
2023/04/29 11:23:34;;;;;;;;;;;16.00;64.10;;;;;;5073687;28;19924;-39
2023/04/29 11:26:00;;;;;;;;;;;16.00;64.10;;;;;;5075159;28;19912;-49
2023/04/29 11:28:29;;;;;;;;;;;15.90;64.50;;;;;;5074795;28;20035;-46
2023/04/29 11:30:55;;;;;;;;;;;15.90;64.90;;;;;;5074993;28;19915;-34
2023/04/29 11:33:21;;;;;;;;;;;16.00;64.50;;;;;;5074845;28;19935;-43
2023/04/29 11:35:47;;;;;;;;;;;15.90;64.30;;;;;;5075045;28;19920;-42
2023/04/29 11:38:12;;;;;;;;;;;16.00;63.70;;;;;;5074891;28;20292;-28
2023/04/29 11:40:41;;;;;;;;;;;16.10;64.20;;;;;;5074619;28;20376;-37
2023/04/29 11:43:07;;;;;;;;;;;16.30;64.50;;;;;;5074679;28;19908;-39
2023/04/29 11:45:34;;;;;;;;;;;16.50;64.40;;;;;;5074905;28;19915;-27
2023/04/29 11:48:00;;;;;;;;;;;16.60;63.50;;;;;;5073010;28;20007;-29
2023/04/29 11:50:26;;;;;;;;;;;16.60;62.80;;;;;;5074887;28;20379;-27
2023/04/29 11:52:51;;;;;;;;;;;16.60;63.60;;;;;;5074899;28;19916;-28
2023/04/29 11:55:17;;;;;;;;;;;16.70;63.60;;;;;;5074927;28;19912;-30
2023/04/29 11:57:43;;;;;;;;;;;16.70;63.20;;;;;;5074719;28;19908;-28
2023/04/29 12:00:11;;;;;;;;;;;16.70;59.90;;;;;;5074828;28;19912;-27
2023/04/29 12:02:37;;;;;;;;;;;16.60;61.60;;;;;;5074792;28;20368;-31
2023/04/29 12:05:06;;;;;;;;;;;16.50;60.80;;;;;;5074437;28;19916;-28
2023/04/29 12:07:32;;;;;;;;;;;16.50;59.80;;;;;;5074430;28;19983;-29
2023/04/29 12:09:58;;;;;;;;;;;16.40;61.40;;;;;;5074285;28;19927;-30
2023/04/29 12:12:26;;;;;;;;;;;16.50;61.90;;;;;;5073484;28;19909;-28
2023/04/29 12:14:52;;;;;;;;;;;16.60;61.70;;;;;;5074261;28;19962;-29
2023/04/29 12:17:18;;;;;;;;;;;16.60;61.80;;;;;;5074220;28;19915;-32
2023/04/29 12:19:44;;;;;;;;;;;16.80;62.20;;;;;;5074209;28;20412;-30
2023/04/29 12:22:11;;;;;;;;;;;17.00;62.50;;;;;;5074287;28;19942;-34
2023/04/29 12:24:37;;;;;;;;;;;17.20;62.70;;;;;;5074171;28;19916;-34
2023/04/29 12:27:03;;;;;;;;;;;17.40;60.30;;;;;;5074121;28;20003;-32
2023/04/29 12:29:30;;;;;;;;;;;17.40;61.30;;;;;;5074131;28;19908;-30
2023/04/29 12:31:55;;;;;;;;;;;17.40;61.40;;;;;;5073950;28;19908;-29
2023/04/29 12:34:27;;;;;;;;;;;17.50;61.50;;;;;;5074016;28;20003;-33
2023/04/29 12:36:57;;;;;;;;;;;17.50;62.30;;;;;;5073932;28;19908;-31
2023/04/29 12:39:23;;;;;;;;;;;17.50;61.70;;;;;;5074123;28;20045;-28
2023/04/29 12:41:48;;;;;;;;;;;17.50;61.10;;;;;;5073768;28;20325;-30
2023/04/29 12:44:14;;;;;;;;;;;17.50;61.20;;;;;;5073785;28;20350;-35
2023/04/29 12:46:40;;;;;;;;;;;17.50;61.70;;;;;;5073649;28;19913;-29
2023/04/29 12:49:06;;;;;;;;;;;17.50;61.90;;;;;;5073681;28;20265;-29
2023/04/29 12:51:32;;;;;;;;;;;17.50;61.50;;;;;;5073742;28;19915;-30
2023/04/29 12:53:59;;;;;;;;;;;17.60;61.00;;;;;;5073637;28;19908;-29
2023/04/29 12:56:25;;;;;;;;;;;17.60;61.30;;;;;;5073659;28;20391;-27
2023/04/29 12:58:50;;;;;;;;;;;17.60;61.40;;;;;;5073697;28;19913;-31
2023/04/29 13:01:16;;;;;;;;;;;17.70;61.10;;;;;;5073590;28;19931;-33
2023/04/29 13:03:42;;;;;;;;;;;17.70;59.70;;;;;;5074009;28;20005;-32
2023/04/29 13:06:07;;;;;;;;;;;17.60;58.50;;;;;;5073303;28;20020;-34
2023/04/29 13:08:33;;;;;;;;;;;17.50;59.60;;;;;;5073220;28;20322;-31
2023/04/29 13:10:58;;;;;;;;;;;17.40;59.10;;;;;;5073239;28;19908;-30
2023/04/29 13:13:24;;;;;;;;;;;17.50;58.60;;;;;;5073282;28;19952;-27
2023/04/29 13:15:49;;;;;;;;;;;17.50;57.30;;;;;;5073271;28;19908;-32
2023/04/29 13:18:15;;;;;;;;;;;17.60;58.70;;;;;;5071842;28;19913;-33
2023/04/29 13:20:41;;;;;;;;;;;17.80;58.50;;;;;;5073471;28;19959;-32
2023/04/29 13:23:06;;;;;;;;;;;18.00;59.00;;;;;;5071616;28;19975;-29
2023/04/29 13:25:32;;;;;;;;;;;18.20;58.70;;;;;;5072716;28;19908;-34
2023/04/29 13:27:57;;;;;;;;;;;18.30;57.50;;;;;;5072947;28;19913;-29
2023/04/29 13:30:23;;;;;;;;;;;18.40;58.10;;;;;;5072811;28;20376;-28
2023/04/29 13:32:50;;;;;;;;;;;18.40;58.50;;;;;;5072200;28;20178;-28
2023/04/29 13:35:15;;;;;;;;;;;18.40;58.80;;;;;;5072881;28;19909;-28
2023/04/29 13:37:41;;;;;;;;;;;18.40;58.60;;;;;;5073027;28;19920;-33
2023/04/29 13:40:06;;;;;;;;;;;18.40;58.30;;;;;;5072891;28;19958;-28
2023/04/29 13:42:32;;;;;;;;;;;18.30;56.70;;;;;;5072665;28;19958;-28
2023/04/29 13:44:57;;;;;;;;;;;18.20;58.20;;;;;;5072868;28;19965;-30
2023/04/29 13:47:23;;;;;;;;;;;18.20;58.30;;;;;;5072821;28;20279;-35
2023/04/29 13:49:49;;;;;;;;;;;18.10;58.80;;;;;;5072840;28;19953;-34
2023/04/29 13:52:14;;;;;;;;;;;18.10;58.80;;;;;;5072415;28;20383;-31
2023/04/29 13:54:40;;;;;;;;;;;18.00;59.70;;;;;;5072745;28;19908;-31
2023/04/29 13:57:06;;;;;;;;;;;17.90;59.30;;;;;;5072490;28;19955;-30
2023/04/29 13:59:33;;;;;;;;;;;17.90;59.60;;;;;;5072328;28;19909;-29
2023/04/29 14:01:58;;;;;;;;;;;17.90;59.60;;;;;;5072367;28;20275;-27
2023/04/29 14:04:24;;;;;;;;;;;17.90;60.00;;;;;;5072316;28;19908;-33
2023/04/29 14:06:50;;;;;;;;;;;17.80;59.50;;;;;;5070968;28;19921;-46
2023/04/29 14:09:17;;;;;;;;;;;17.70;59.30;;;;;;5072284;28;19913;-27
2023/04/29 14:11:43;;;;;;;;;;;17.70;59.70;;;;;;5072481;28;19908;-31